Time;durP1;ratioP1;P1;durP2;ratioP2;P2;SDS_P1;SDS_P2;PMS_P1;PMS_P2;Temp;Humidity;BMP_temperature;BMP_pressure;BME280_temperature;BME280_humidity;BME280_pressure;Samples;Min_cycle;Max_cycle;Signal;HPM_P1;HPM_P2
2022/07/30 00:01:42;;;;;;;1.47;0.90;;;19.80;96.50;;;;;;4937488;28;21012;-76
2022/07/30 00:04:09;;;;;;;1.47;0.90;;;19.80;96.70;;;;;;4948589;29;20907;-76
2022/07/30 00:06:38;;;;;;;1.50;0.90;;;19.80;96.10;;;;;;4940978;28;20553;-76
2022/07/30 00:09:05;;;;;;;1.47;1.00;;;19.70;96.10;;;;;;4948319;29;20521;-77
2022/07/30 00:11:32;;;;;;;1.47;0.90;;;19.70;97.90;;;;;;4936838;28;20834;-77
2022/07/30 00:14:01;;;;;;;1.43;0.90;;;19.70;98.00;;;;;;4948657;29;20491;-77
2022/07/30 00:16:28;;;;;;;1.47;0.90;;;19.70;97.20;;;;;;4937479;28;20935;-76
2022/07/30 00:18:55;;;;;;;1.47;0.90;;;19.60;97.50;;;;;;4948299;28;20561;-78
2022/07/30 00:21:21;;;;;;;1.47;0.90;;;19.60;98.20;;;;;;4940348;28;20537;-76
2022/07/30 00:23:48;;;;;;;1.47;1.00;;;19.50;98.20;;;;;;4955965;28;20466;-77
2022/07/30 00:26:16;;;;;;;1.50;1.00;;;19.40;98.20;;;;;;4941159;28;20969;-77
2022/07/30 00:28:42;;;;;;;1.47;0.90;;;19.40;98.20;;;;;;4948900;28;20493;-77
2022/07/30 00:31:11;;;;;;;1.50;0.90;;;19.30;98.20;;;;;;4939833;28;20475;-77
2022/07/30 00:33:38;;;;;;;1.40;0.90;;;19.30;98.20;;;;;;4955780;28;20630;-77
2022/07/30 00:36:05;;;;;;;1.47;0.90;;;19.20;98.20;;;;;;4941124;28;20485;-77
2022/07/30 00:38:32;;;;;;;1.50;1.00;;;19.20;98.20;;;;;;4953043;28;20537;-77
2022/07/30 00:40:59;;;;;;;1.50;0.90;;;19.10;98.20;;;;;;4942197;28;20529;-77
2022/07/30 00:43:26;;;;;;;1.50;0.90;;;19.10;98.20;;;;;;4951915;29;20543;-76
2022/07/30 00:45:53;;;;;;;1.47;0.90;;;19.10;98.20;;;;;;4942417;28;21023;-77
2022/07/30 00:48:21;;;;;;;1.50;0.90;;;19.00;98.20;;;;;;4957783;28;20498;-77
2022/07/30 00:50:48;;;;;;;1.50;1.00;;;19.00;98.20;;;;;;4942798;29;20750;-77
2022/07/30 00:53:15;;;;;;;1.47;0.90;;;19.00;98.20;;;;;;4953664;28;20487;-76
2022/07/30 00:55:42;;;;;;;1.50;0.90;;;19.00;98.20;;;;;;4953144;29;20936;-77
2022/07/30 00:58:09;;;;;;;1.50;0.90;;;19.00;98.20;;;;;;4944221;28;20837;-76
2022/07/30 01:00:36;;;;;;;1.50;0.90;;;18.90;98.20;;;;;;4953285;29;20725;-78
2022/07/30 01:03:05;;;;;;;1.47;1.00;;;18.90;98.20;;;;;;4943205;28;20507;-77
2022/07/30 01:05:34;;;;;;;1.50;0.90;;;18.90;98.20;;;;;;4954297;29;20968;-77
2022/07/30 01:08:01;;;;;;;1.50;1.20;;;18.90;98.20;;;;;;4943667;28;20498;-77
2022/07/30 01:10:28;;;;;;;1.50;1.00;;;18.90;98.20;;;;;;4953879;29;20551;-77
2022/07/30 01:12:57;;;;;;;1.43;0.90;;;18.80;98.20;;;;;;4941529;28;21022;-77
2022/07/30 01:15:26;;;;;;;1.50;1.00;;;18.80;98.20;;;;;;4953054;28;20829;-76
2022/07/30 01:17:55;;;;;;;1.50;0.90;;;18.80;98.20;;;;;;4945814;28;21209;-77
2022/07/30 01:20:25;;;;;;;1.40;0.90;;;18.70;98.20;;;;;;4953018;29;20473;-78
2022/07/30 01:23:02;;;;;;;1.47;0.90;;;18.70;98.20;;;;;;4939699;28;20486;-78
2022/07/30 01:25:51;;;;;;;1.50;0.90;;;18.70;98.20;;;;;;4954132;29;20462;-78
2022/07/30 01:28:24;;;;;;;1.50;1.00;;;18.60;98.20;;;;;;4930124;29;20541;-77
2022/07/30 01:30:53;;;;;;;1.47;0.90;;;18.60;98.20;;;;;;4937449;28;20462;-77
2022/07/30 01:33:22;;;;;;;1.50;0.90;;;18.60;98.20;;;;;;4950105;28;20922;-77
2022/07/30 01:35:51;;;;;;;1.47;0.90;;;18.50;98.20;;;;;;4943730;29;21028;-78
2022/07/30 01:38:21;;;;;;;1.47;0.93;;;18.50;98.20;;;;;;4934483;28;20472;-77
2022/07/30 01:40:52;;;;;;;1.40;0.90;;;18.40;98.20;;;;;;4943896;28;20986;-77
2022/07/30 01:43:21;;;;;;;1.43;0.90;;;18.40;98.20;;;;;;4949532;28;20510;-78
2022/07/30 01:45:49;;;;;;;1.47;0.93;;;18.30;98.20;;;;;;4943280;28;20495;-78
2022/07/30 01:48:21;;;;;;;1.50;1.00;;;18.30;98.20;;;;;;4961179;28;20471;-77
2022/07/30 01:50:53;;;;;;;1.47;1.00;;;18.30;98.20;;;;;;4942891;29;20546;-77
2022/07/30 01:53:23;;;;;;;1.43;0.90;;;18.30;98.20;;;;;;4955178;28;20501;-77
2022/07/30 01:55:54;;;;;;;1.50;0.97;;;18.30;98.20;;;;;;4943411;29;20474;-77
2022/07/30 01:58:23;;;;;;;1.50;0.90;;;18.20;98.20;;;;;;4951798;28;20466;-77
2022/07/30 02:00:51;;;;;;;1.50;1.13;;;18.20;98.20;;;;;;4942290;29;20490;-76
2022/07/30 02:03:18;;;;;;;1.47;1.00;;;18.20;98.20;;;;;;4952141;28;20883;-77
2022/07/30 02:05:52;;;;;;;1.47;1.00;;;18.20;98.20;;;;;;4952721;28;20538;-77
2022/07/30 02:08:26;;;;;;;1.50;1.00;;;18.20;98.20;;;;;;4953457;28;21099;-77
2022/07/30 02:11:01;;;;;;;1.50;1.00;;;18.10;98.20;;;;;;4942564;28;20471;-78
2022/07/30 02:13:31;;;;;;;1.50;1.00;;;18.10;98.20;;;;;;4953035;29;20466;-78
2022/07/30 02:16:06;;;;;;;1.47;0.90;;;18.10;98.20;;;;;;4945474;28;20482;-78
2022/07/30 02:18:40;;;;;;;1.47;0.93;;;18.10;98.20;;;;;;4951968;28;20546;-78
2022/07/30 02:21:09;;;;;;;1.47;0.90;;;18.10;98.20;;;;;;4941162;28;20561;-77
2022/07/30 02:23:40;;;;;;;1.47;0.90;;;18.10;98.20;;;;;;4951441;29;20534;-77
2022/07/30 02:26:10;;;;;;;1.50;1.00;;;18.10;98.20;;;;;;4942576;28;21487;-79
2022/07/30 02:28:39;;;;;;;1.43;0.90;;;18.00;98.20;;;;;;4951411;29;20550;-76
2022/07/30 02:31:11;;;;;;;1.47;1.00;;;18.00;98.20;;;;;;4940270;28;20938;-79
2022/07/30 02:33:41;;;;;;;1.50;1.00;;;18.00;98.20;;;;;;4955678;28;20467;-78
2022/07/30 02:36:09;;;;;;;1.47;0.90;;;18.00;98.20;;;;;;4944536;28;20891;-76
2022/07/30 02:38:37;;;;;;;1.50;0.90;;;18.00;98.20;;;;;;4955199;28;20573;-77
2022/07/30 02:41:07;;;;;;;1.50;1.00;;;17.90;98.20;;;;;;4939873;29;21111;-77
2022/07/30 02:43:37;;;;;;;1.47;1.00;;;17.90;98.20;;;;;;4947320;28;20467;-78
2022/07/30 02:46:05;;;;;;;1.43;0.90;;;17.90;98.20;;;;;;4953394;28;20960;-78
2022/07/30 02:48:33;;;;;;;1.50;1.00;;;17.80;98.20;;;;;;4952097;28;20475;-78
2022/07/30 02:51:02;;;;;;;1.50;1.00;;;17.80;98.20;;;;;;4941944;28;20522;-78
2022/07/30 02:53:32;;;;;;;1.43;0.90;;;17.80;98.20;;;;;;4947080;29;20857;-78
2022/07/30 02:56:01;;;;;;;1.43;0.90;;;17.80;98.20;;;;;;4940602;28;20499;-78
2022/07/30 02:58:29;;;;;;;1.47;0.90;;;17.80;98.20;;;;;;4953128;28;20983;-77
2022/07/30 03:00:58;;;;;;;1.47;1.00;;;17.70;98.20;;;;;;4940638;29;20474;-79
2022/07/30 03:03:28;;;;;;;1.50;1.00;;;17.70;98.20;;;;;;4951162;29;20491;-77
2022/07/30 03:05:55;;;;;;;1.40;0.90;;;17.70;98.20;;;;;;4941273;29;20536;-78
2022/07/30 03:08:23;;;;;;;1.47;0.90;;;17.70;98.20;;;;;;4951877;28;20522;-78
2022/07/30 03:10:53;;;;;;;1.47;1.00;;;17.70;98.20;;;;;;4941996;29;21167;-78
2022/07/30 03:13:21;;;;;;;1.43;1.00;;;17.70;98.20;;;;;;4946579;28;20491;-78
2022/07/30 03:15:51;;;;;;;1.50;1.00;;;17.70;98.20;;;;;;4942731;28;21108;-78
2022/07/30 03:18:21;;;;;;;1.47;0.90;;;17.70;98.20;;;;;;4954471;28;21233;-78
2022/07/30 03:20:51;;;;;;;1.50;0.90;;;17.70;98.20;;;;;;4939047;29;20472;-78
2022/07/30 03:23:20;;;;;;;1.60;1.43;;;17.70;98.20;;;;;;4952525;28;20495;-79
2022/07/30 03:25:52;;;;;;;1.40;0.90;;;17.60;98.20;;;;;;4947324;29;20459;-79
2022/07/30 03:28:21;;;;;;;1.43;0.90;;;17.60;98.20;;;;;;4952317;28;20960;-78
2022/07/30 03:30:48;;;;;;;1.50;1.00;;;17.60;98.20;;;;;;4947946;29;20491;-78
2022/07/30 03:33:17;;;;;;;1.47;0.90;;;17.60;98.20;;;;;;4961318;28;20567;-78
2022/07/30 03:35:48;;;;;;;1.50;1.00;;;17.60;98.20;;;;;;4963231;29;20478;-78
2022/07/30 03:38:16;;;;;;;1.50;1.00;;;17.60;98.20;;;;;;4934246;29;20488;-78
2022/07/30 03:40:44;;;;;;;1.50;1.00;;;17.50;98.20;;;;;;4958796;29;20509;-77
2022/07/30 03:43:14;;;;;;;1.50;0.97;;;17.50;98.20;;;;;;4955409;28;20501;-77
2022/07/30 03:45:45;;;;;;;1.50;1.00;;;17.50;98.20;;;;;;4961608;28;20832;-77
2022/07/30 03:48:13;;;;;;;1.43;0.90;;;17.40;98.20;;;;;;4932225;29;20987;-77
2022/07/30 03:50:42;;;;;;;1.50;1.10;;;17.40;98.20;;;;;;4949423;29;20514;-76
2022/07/30 03:53:11;;;;;;;1.47;0.93;;;17.40;98.20;;;;;;4941948;28;20570;-77
2022/07/30 03:55:38;;;;;;;1.47;0.90;;;17.40;98.20;;;;;;4943081;28;20487;-77
2022/07/30 03:58:07;;;;;;;1.47;1.00;;;17.40;98.20;;;;;;4939806;28;20490;-77
2022/07/30 04:00:34;;;;;;;1.50;0.90;;;17.40;98.20;;;;;;4949969;29;20975;-77
2022/07/30 04:03:01;;;;;;;1.47;0.90;;;17.30;98.20;;;;;;4940175;28;20498;-77
2022/07/30 04:05:28;;;;;;;1.50;1.00;;;17.40;98.20;;;;;;4951507;29;20463;-77
2022/07/30 04:07:56;;;;;;;1.50;0.90;;;17.40;98.20;;;;;;4955020;28;20537;-77
2022/07/30 04:10:24;;;;;;;1.47;0.90;;;17.30;98.20;;;;;;4951570;29;20553;-78
2022/07/30 04:12:52;;;;;;;1.47;0.90;;;17.30;98.20;;;;;;4939760;28;20499;-77
2022/07/30 04:15:19;;;;;;;1.40;0.90;;;17.30;98.20;;;;;;4952187;28;20491;-77
2022/07/30 04:17:52;;;;;;;1.47;0.90;;;17.30;98.20;;;;;;4944237;28;20526;-77
2022/07/30 04:20:24;;;;;;;1.47;1.00;;;17.30;98.20;;;;;;4952537;29;20463;-77
2022/07/30 04:22:52;;;;;;;1.50;0.93;;;17.30;98.20;;;;;;4935529;28;20494;-78
2022/07/30 04:25:20;;;;;;;1.40;1.00;;;17.20;98.20;;;;;;4943095;29;20479;-78
2022/07/30 04:27:49;;;;;;;1.50;1.00;;;17.20;98.20;;;;;;4978165;23;20525;-79
2022/07/30 04:30:16;;;;;;;1.43;0.90;;;17.20;98.20;;;;;;4981013;28;20473;-79
2022/07/30 04:32:44;;;;;;;1.50;0.90;;;17.20;98.20;;;;;;4964692;28;20897;-77
2022/07/30 04:35:11;;;;;;;1.50;1.00;;;17.20;98.20;;;;;;4976114;28;20544;-76
2022/07/30 04:37:38;;;;;;;1.50;0.97;;;17.20;98.20;;;;;;4988913;28;20492;-78
2022/07/30 04:40:07;;;;;;;1.47;1.00;;;17.20;98.20;;;;;;4975719;28;20489;-78
2022/07/30 04:42:34;;;;;;;1.43;0.90;;;17.20;98.20;;;;;;4966818;28;20486;-77
2022/07/30 04:45:03;;;;;;;1.47;1.00;;;17.20;98.20;;;;;;4979137;28;20967;-78
2022/07/30 04:47:30;;;;;;;1.47;0.90;;;17.20;98.20;;;;;;4974514;28;20903;-79
2022/07/30 04:50:03;;;;;;;1.43;1.00;;;17.30;98.20;;;;;;4992922;28;20465;-77
2022/07/30 04:52:48;;;;;;;1.50;0.90;;;17.30;98.20;;;;;;4987735;28;20512;-77
2022/07/30 04:58:57;;;;;;;1.50;1.00;;;17.40;98.20;;;;;;4911013;29;20554;-77
2022/07/30 05:04:37;;;;;;;1.43;0.97;;;17.40;98.20;;;;;;4984359;28;20524;-78
2022/07/30 05:07:25;;;;;;;1.50;0.90;;;17.40;98.20;;;;;;4971681;28;20484;-77
2022/07/30 05:10:14;;;;;;;;;;;;;;;;;;;;;
2022/07/30 05:15:47;;;;;;;1.50;0.90;;;17.60;98.20;;;;;;4980107;28;20492;-76
2022/07/30 05:18:39;;;;;;;1.43;0.90;;;17.70;98.20;;;;;;4951682;28;20556;-76
2022/07/30 05:21:13;;;;;;;1.50;1.00;;;17.80;98.20;;;;;;4981242;28;20524;-76
2022/07/30 05:23:49;;;;;;;1.50;1.00;;;17.80;98.20;;;;;;4992174;28;20457;-76
2022/07/30 05:26:33;;;;;;;1.50;1.00;;;17.90;98.20;;;;;;4982810;28;20504;-76
2022/07/30 05:29:17;;;;;;;1.50;0.90;;;17.90;98.20;;;;;;4979845;28;21037;-76
2022/07/30 05:31:51;;;;;;;1.50;1.00;;;18.00;98.20;;;;;;4947254;28;20521;-77
2022/07/30 05:34:42;;;;;;;1.50;0.90;;;18.10;98.20;;;;;;4983275;28;20472;-76
2022/07/30 05:37:46;;;;;;;1.50;0.90;;;18.10;98.20;;;;;;4987329;28;20824;-77
2022/07/30 05:40:26;;;;;;;1.43;0.90;;;18.10;98.20;;;;;;4994034;28;20793;-77
2022/07/30 05:42:54;;;;;;;1.47;0.90;;;18.20;98.20;;;;;;4973015;28;20489;-78
2022/07/30 05:45:31;;;;;;;1.50;1.00;;;18.20;98.20;;;;;;4995076;28;20465;-77
2022/07/30 05:48:17;;;;;;;1.47;0.90;;;18.10;98.20;;;;;;4968837;28;20578;-78
2022/07/30 05:51:13;;;;;;;;;;;;;;;;;;;;;
2022/07/30 05:53:41;;;;;;;1.50;0.90;;;18.20;98.20;;;;;;4996781;28;20511;-76
2022/07/30 05:56:12;;;;;;;1.43;0.90;;;18.20;98.20;;;;;;4986953;28;20495;-77
2022/07/30 05:58:39;;;;;;;1.43;0.90;;;18.10;98.20;;;;;;4982207;28;20494;-77
2022/07/30 06:01:07;;;;;;;1.40;0.90;;;18.10;98.20;;;;;;4969189;28;20434;-77
2022/07/30 06:03:35;;;;;;;1.43;0.87;;;18.10;98.20;;;;;;4979107;28;20864;-79
2022/07/30 06:06:05;;;;;;;1.43;1.00;;;18.10;98.20;;;;;;4981432;28;20462;-79
2022/07/30 06:08:32;;;;;;;1.50;0.93;;;18.20;98.20;;;;;;4976591;28;20492;-76
2022/07/30 06:10:59;;;;;;;1.47;0.90;;;18.20;98.20;;;;;;4978833;28;20468;-78
2022/07/30 06:13:26;;;;;;;1.50;0.90;;;18.30;98.20;;;;;;4983285;28;20468;-78
2022/07/30 06:15:56;;;;;;;1.50;0.90;;;18.30;98.20;;;;;;4987091;28;20492;-77
2022/07/30 06:18:24;;;;;;;1.50;1.00;;;18.40;98.20;;;;;;4992699;28;20485;-78
2022/07/30 06:20:53;;;;;;;1.43;0.97;;;18.40;98.20;;;;;;4972569;28;20502;-77
2022/07/30 06:23:22;;;;;;;1.50;0.90;;;18.50;98.20;;;;;;4977943;28;20469;-78
2022/07/30 06:25:50;;;;;;;1.47;0.90;;;18.50;98.20;;;;;;4958411;28;20501;-79
2022/07/30 06:28:18;;;;;;;1.50;0.90;;;18.50;98.20;;;;;;4972761;28;20508;-79
2022/07/30 06:30:47;;;;;;;1.47;0.90;;;18.60;98.20;;;;;;4978360;28;20470;-79
2022/07/30 06:33:15;;;;;;;1.50;1.00;;;18.70;98.20;;;;;;4956000;28;20486;-77
2022/07/30 06:35:44;;;;;;;1.47;0.93;;;18.80;98.20;;;;;;4979790;28;20490;-78
2022/07/30 06:38:11;;;;;;;1.50;1.00;;;18.90;98.20;;;;;;4962166;28;20484;-79
2022/07/30 06:40:41;;;;;;;1.50;0.90;;;19.00;98.20;;;;;;4977729;28;20517;-78
2022/07/30 06:43:09;;;;;;;1.47;0.83;;;19.00;98.20;;;;;;4964693;28;20512;-78
2022/07/30 06:45:36;;;;;;;1.43;0.90;;;19.00;98.20;;;;;;4984596;28;20458;-79
2022/07/30 06:53:08;;;;;;;1.50;0.90;;;19.50;98.20;;;;;;4955210;28;20482;-78
2022/07/30 06:55:35;;;;;;;1.50;0.90;;;19.70;98.20;;;;;;4983091;28;20495;-78
2022/07/30 06:58:04;;;;;;;1.47;0.90;;;19.70;98.20;;;;;;4960786;28;20481;-78
2022/07/30 07:00:34;;;;;;;1.50;0.90;;;19.80;98.20;;;;;;4966500;28;20494;-78
2022/07/30 07:03:02;;;;;;;1.43;0.90;;;19.80;98.20;;;;;;4963303;28;20510;-79
2022/07/30 07:05:29;;;;;;;1.50;0.90;;;19.90;98.20;;;;;;4969953;28;20912;-78
2022/07/30 07:07:56;;;;;;;1.50;0.90;;;20.10;98.20;;;;;;4951693;28;20490;-79
2022/07/30 07:10:24;;;;;;;1.50;1.00;;;20.30;98.20;;;;;;4963008;28;20512;-78
2022/07/30 07:12:51;;;;;;;1.50;0.90;;;20.40;98.20;;;;;;4972751;28;20462;-79
2022/07/30 07:15:19;;;;;;;1.50;0.90;;;20.60;98.20;;;;;;4971943;28;20821;-78
2022/07/30 07:17:47;;;;;;;1.50;1.00;;;20.70;98.20;;;;;;4959841;28;20486;-79
2022/07/30 07:20:14;;;;;;;1.47;0.90;;;20.90;98.20;;;;;;4971440;28;20485;-79
2022/07/30 07:22:41;;;;;;;1.50;0.90;;;20.90;98.20;;;;;;4968950;28;20552;-77
2022/07/30 07:25:09;;;;;;;1.50;0.90;;;20.90;98.20;;;;;;4971265;28;20461;-79
2022/07/30 07:27:37;;;;;;;1.50;0.90;;;21.20;98.20;;;;;;4959162;28;20493;-78
2022/07/30 07:30:05;;;;;;;2.50;2.30;;;21.40;97.30;;;;;;4971247;28;20486;-79
2022/07/30 07:32:35;;;;;;;1.50;0.90;;;21.50;97.00;;;;;;4964126;28;20490;-79
2022/07/30 07:35:02;;;;;;;1.50;0.90;;;21.70;96.80;;;;;;4970552;28;20490;-79
2022/07/30 07:37:31;;;;;;;1.50;0.90;;;22.00;96.30;;;;;;4966846;28;20478;-78
2022/07/30 07:39:58;;;;;;;1.50;0.90;;;22.20;95.50;;;;;;4969936;28;20847;-79
2022/07/30 07:42:25;;;;;;;1.50;0.90;;;22.50;94.90;;;;;;4958811;28;20477;-78
2022/07/30 07:44:52;;;;;;;2.03;1.10;;;22.70;93.60;;;;;;4965410;28;20557;-80
2022/07/30 07:47:25;;;;;;;1.50;0.90;;;22.90;93.60;;;;;;4962344;28;20533;-81
2022/07/30 07:49:56;;;;;;;1.50;0.90;;;23.10;92.80;;;;;;4967338;28;20516;-78
2022/07/30 07:52:23;;;;;;;1.47;0.90;;;23.30;91.80;;;;;;4955552;28;20861;-78
2022/07/30 07:54:50;;;;;;;1.50;0.90;;;23.40;92.10;;;;;;4969811;28;20461;-79
2022/07/30 07:57:18;;;;;;;1.47;0.90;;;23.50;91.10;;;;;;4961262;28;21193;-80
2022/07/30 07:59:45;;;;;;;1.50;0.90;;;23.60;91.70;;;;;;4967449;28;20493;-80
2022/07/30 08:02:12;;;;;;;1.50;0.90;;;23.70;91.20;;;;;;4963923;28;20543;-79
2022/07/30 08:04:40;;;;;;;1.47;0.90;;;23.90;90.80;;;;;;4971994;28;20478;-79
2022/07/30 08:07:08;;;;;;;1.50;0.90;;;24.10;90.10;;;;;;4960686;28;20473;-80
2022/07/30 08:09:36;;;;;;;1.50;0.90;;;24.40;89.70;;;;;;4962693;28;20960;-81
2022/07/30 08:12:03;;;;;;;1.50;0.90;;;24.50;88.40;;;;;;4960510;28;20573;-79
2022/07/30 08:14:30;;;;;;;1.47;0.90;;;24.50;87.80;;;;;;4967134;28;20469;-79
2022/07/30 08:16:58;;;;;;;1.50;0.90;;;24.40;88.80;;;;;;4958024;28;20545;-79
2022/07/30 08:19:25;;;;;;;1.50;0.90;;;24.60;88.40;;;;;;4964430;28;20496;-79
2022/07/30 08:21:52;;;;;;;1.60;1.20;;;24.80;88.40;;;;;;4954846;28;20485;-79
2022/07/30 08:24:20;;;;;;;1.50;0.90;;;25.00;87.20;;;;;;4970808;28;20551;-80
2022/07/30 08:26:50;;;;;;;1.50;0.80;;;25.10;86.90;;;;;;4956190;28;20529;-80
2022/07/30 08:29:17;;;;;;;1.50;0.90;;;25.20;86.80;;;;;;4967746;28;21010;-81
2022/07/30 08:31:44;;;;;;;1.50;0.83;;;25.40;85.90;;;;;;4946430;28;20688;-80
2022/07/30 08:34:12;;;;;;;1.50;0.90;;;25.60;85.80;;;;;;4964839;28;21094;-79
2022/07/30 08:36:40;;;;;;;1.50;0.80;;;25.70;84.10;;;;;;4957844;28;21017;-80
2022/07/30 08:39:08;;;;;;;1.50;0.90;;;25.70;84.90;;;;;;4966084;28;20489;-83
2022/07/30 08:41:41;;;;;;;1.40;0.90;;;25.60;85.30;;;;;;4962927;28;21184;-81
2022/07/30 08:44:11;;;;;;;1.47;0.90;;;25.70;84.90;;;;;;4974013;28;20466;-80
2022/07/30 08:46:42;;;;;;;1.47;0.80;;;26.00;85.20;;;;;;4964202;28;20481;-77
2022/07/30 08:49:11;;;;;;;1.43;0.80;;;26.30;83.40;;;;;;4974126;28;20496;-81
2022/07/30 08:51:43;;;;;;;1.50;0.80;;;26.20;83.00;;;;;;4960346;28;20492;-83
2022/07/30 08:54:10;;;;;;;1.50;0.80;;;26.20;82.50;;;;;;4967267;28;20527;-79
2022/07/30 08:56:39;;;;;;;1.60;1.20;;;26.50;83.30;;;;;;4962305;28;20489;-79
2022/07/30 08:59:06;;;;;;;1.40;0.80;;;26.60;82.20;;;;;;4968700;28;20485;-81
2022/07/30 09:01:34;;;;;;;1.40;0.80;;;26.70;81.60;;;;;;4959597;28;20492;-81
2022/07/30 09:04:02;;;;;;;1.50;0.80;;;26.60;80.80;;;;;;4971568;28;20950;-80
2022/07/30 09:06:49;;;;;;;1.43;0.90;;;26.50;81.30;;;;;;4965345;28;20519;-79
2022/07/30 09:09:17;;;;;;;1.47;0.80;;;26.60;81.30;;;;;;4968277;28;20579;-78
2022/07/30 09:11:46;;;;;;;1.47;0.87;;;26.70;80.30;;;;;;4958397;28;20512;-77
2022/07/30 09:14:14;;;;;;;1.47;0.80;;;26.70;80.00;;;;;;4969816;28;20545;-77
2022/07/30 09:16:44;;;;;;;1.50;0.80;;;26.80;80.00;;;;;;4959772;28;20910;-79
2022/07/30 09:19:13;;;;;;;1.60;1.30;;;26.90;79.40;;;;;;4966196;28;20485;-78
2022/07/30 09:21:54;;;;;;;1.43;0.80;;;27.00;79.40;;;;;;4966409;28;20477;-80
2022/07/30 09:24:22;;;;;;;1.47;0.80;;;27.30;78.00;;;;;;4982258;28;20505;-81
2022/07/30 09:27:30;;;;;;;1.50;0.90;;;27.50;77.20;;;;;;4966481;28;20493;-79
2022/07/30 09:30:45;;;;;;;1.40;0.80;;;27.70;75.40;;;;;;4970043;23;20764;-80
2022/07/30 09:33:59;;;;;;;1.50;0.80;;;27.80;75.60;;;;;;4928065;29;20500;-79
2022/07/30 09:37:26;;;;;;;1.43;0.80;;;27.70;76.20;;;;;;4945781;28;20508;-79
2022/07/30 09:40:31;;;;;;;1.47;0.80;;;27.90;76.60;;;;;;5068176;23;20505;-78
2022/07/30 09:44:05;;;;;;;;;;;;;;;;;;;;;
2022/07/30 09:47:16;;;;;;;1.47;0.80;;;28.00;74.20;;;;;;4920573;28;20508;-80
2022/07/30 09:53:21;;;;;;;1.43;0.80;;;28.50;71.20;;;;;;1220935;26;20453;-80
2022/07/30 09:56:44;;;;;;;;;;;;;;;;;;;;;
2022/07/30 10:02:43;;;;;;;1.43;0.80;;;29.10;72.30;;;;;;5370717;23;20507;-80
2022/07/30 10:12:10;;;;;;;1.50;1.10;;;29.00;69.40;;;;;;5021354;23;20489;-79
2022/07/30 10:15:19;;;;;;;;;;;;;;;;;;;;;
2022/07/30 10:18:17;;;;;;;1.50;0.80;;;28.70;68.80;;;;;;4874583;29;20498;-80
2022/07/30 10:21:16;;;;;;;1.50;1.00;;;28.80;70.10;;;;;;5333820;23;20495;-78
2022/07/30 10:24:52;;;;;;;1.47;0.80;;;29.00;71.00;;;;;;4939700;28;20487;-79
2022/07/30 10:35:12;;;;;;;1.50;0.80;;;29.90;66.50;;;;;;4871980;29;20509;-80
2022/07/30 10:38:27;;;;;;;1.47;0.90;;;29.90;66.80;;;;;;4891074;29;20488;-80
2022/07/30 11:14:14;;;;;;;1.47;0.80;;;31.10;63.90;;;;;;5489169;23;20283;-80
2022/07/30 11:27:03;;;;;;;1.43;0.80;;;31.50;62.90;;;;;;4950956;23;20238;-80
2022/07/30 11:30:09;;;;;;;1.60;1.10;;;31.80;61.20;;;;;;4976384;28;20317;-79
2022/07/30 11:33:34;;;;;;;1.43;0.80;;;31.80;60.20;;;;;;4951596;28;20801;-81
2022/07/30 11:36:11;;;;;;;1.47;0.80;;;31.70;60.90;;;;;;4913644;29;20595;-79
2022/07/30 11:38:58;;;;;;;1.40;0.80;;;31.60;60.00;;;;;;4908516;29;20218;-79
2022/07/30 11:41:26;;;;;;;1.40;0.80;;;31.60;59.40;;;;;;4945048;28;20492;-80
2022/07/30 11:46:22;;;;;;;1.40;0.80;;;31.60;58.20;;;;;;4938673;28;20242;-77
2022/07/30 11:48:56;;;;;;;1.43;0.80;;;31.60;59.60;;;;;;4944661;28;20337;-76
2022/07/30 11:51:24;;;;;;;1.47;0.80;;;31.70;59.80;;;;;;4945991;28;20309;-77
2022/07/30 11:54:02;;;;;;;1.43;0.80;;;31.70;58.40;;;;;;4947193;28;20239;-77
2022/07/30 11:56:30;;;;;;;1.50;0.90;;;31.60;58.70;;;;;;4944644;28;20646;-78
2022/07/30 11:59:03;;;;;;;1.40;0.80;;;31.70;59.90;;;;;;4941123;28;20274;-78
2022/07/30 12:01:34;;;;;;;1.43;0.80;;;31.70;60.30;;;;;;4933188;28;20525;-76
2022/07/30 12:04:03;;;;;;;1.40;0.80;;;31.90;60.30;;;;;;4939653;28;20254;-75
2022/07/30 12:06:32;;;;;;;1.47;0.80;;;32.10;58.70;;;;;;4939261;28;20211;-76
2022/07/30 12:09:00;;;;;;;1.43;0.80;;;32.20;57.60;;;;;;4943167;28;20303;-77
2022/07/30 12:11:32;;;;;;;1.47;0.80;;;32.40;58.30;;;;;;4931940;28;20242;-77
2022/07/30 12:14:01;;;;;;;1.40;0.80;;;32.40;56.50;;;;;;4939437;28;20823;-76
2022/07/30 12:16:30;;;;;;;1.40;0.80;;;32.30;57.00;;;;;;4923859;28;20643;-77
2022/07/30 12:19:04;;;;;;;1.63;1.23;;;32.00;57.50;;;;;;4942067;28;20218;-77
2022/07/30 12:21:31;;;;;;;1.43;0.80;;;32.10;58.20;;;;;;4935079;28;20239;-77
2022/07/30 12:24:02;;;;;;;1.43;0.80;;;32.30;55.90;;;;;;4944162;28;20226;-78
2022/07/30 12:26:32;;;;;;;1.40;0.80;;;32.40;59.30;;;;;;4933971;28;20239;-77
2022/07/30 12:29:03;;;;;;;1.40;0.80;;;32.30;57.10;;;;;;4942004;28;20215;-76
2022/07/30 12:31:32;;;;;;;1.43;0.80;;;32.20;57.50;;;;;;4949123;28;20218;-76
2022/07/30 12:34:00;;;;;;;1.47;0.80;;;32.10;56.50;;;;;;4951049;28;20226;-81
2022/07/30 12:36:31;;;;;;;1.40;0.90;;;31.90;57.80;;;;;;4943900;28;20381;-77
2022/07/30 12:39:00;;;;;;;1.40;0.80;;;31.80;58.50;;;;;;4950333;28;20202;-77
2022/07/30 12:41:44;;;;;;;1.40;0.80;;;31.90;58.50;;;;;;4953743;28;20234;-76
2022/07/30 12:44:33;;;;;;;1.40;0.80;;;32.00;57.80;;;;;;4948272;28;20241;-75
2022/07/30 12:47:01;;;;;;;1.40;0.80;;;32.00;57.40;;;;;;4938485;28;20223;-76
2022/07/30 12:49:29;;;;;;;1.50;1.17;;;32.10;57.20;;;;;;4950566;28;20553;-76
2022/07/30 12:52:01;;;;;;;1.40;0.80;;;32.10;57.50;;;;;;4933131;28;20239;-77
2022/07/30 12:54:29;;;;;;;1.40;0.80;;;31.90;58.00;;;;;;4947484;28;20318;-77
2022/07/30 12:57:01;;;;;;;1.50;1.00;;;31.50;57.00;;;;;;4953774;28;20230;-77
2022/07/30 12:59:29;;;;;;;1.47;0.80;;;31.50;57.50;;;;;;4953453;28;20285;-76
2022/07/30 13:01:59;;;;;;;1.47;0.90;;;31.70;57.20;;;;;;4947253;28;20657;-76
2022/07/30 13:04:26;;;;;;;1.40;0.80;;;31.80;56.50;;;;;;4950000;28;20486;-76
2022/07/30 13:07:09;;;;;;;1.40;0.80;;;31.80;56.50;;;;;;4946133;28;20227;-75
2022/07/30 13:09:37;;;;;;;1.40;0.80;;;31.90;56.20;;;;;;4952874;28;20301;-74
2022/07/30 13:12:05;;;;;;;1.40;0.80;;;32.10;57.70;;;;;;4941747;28;20359;-77
2022/07/30 13:14:32;;;;;;;1.40;0.80;;;32.10;56.80;;;;;;4952245;28;20242;-77
2022/07/30 13:17:02;;;;;;;1.40;0.80;;;32.30;55.90;;;;;;4944811;28;20651;-76
2022/07/30 13:19:29;;;;;;;1.40;0.80;;;32.40;57.00;;;;;;4949901;28;20221;-77
2022/07/30 13:21:57;;;;;;;1.50;1.00;;;32.30;58.00;;;;;;4939754;28;20239;-77
2022/07/30 13:24:26;;;;;;;1.40;0.80;;;32.20;58.10;;;;;;4953621;28;20230;-78
2022/07/30 13:26:53;;;;;;;1.40;0.80;;;32.30;58.30;;;;;;4947982;28;20253;-75
2022/07/30 13:29:20;;;;;;;1.50;1.00;;;32.40;57.50;;;;;;4948428;28;20211;-78
2022/07/30 13:31:47;;;;;;;1.40;0.80;;;32.00;57.70;;;;;;4940367;28;20258;-77
2022/07/30 13:34:15;;;;;;;1.40;0.80;;;31.70;58.40;;;;;;4941674;28;20274;-77
2022/07/30 13:36:42;;;;;;;1.47;0.80;;;31.50;58.70;;;;;;4963592;28;20461;-76
2022/07/30 13:39:10;;;;;;;1.43;0.80;;;31.40;59.30;;;;;;4959742;28;20195;-77
2022/07/30 13:41:40;;;;;;;1.40;0.80;;;31.20;59.70;;;;;;4946459;28;20489;-76
2022/07/30 13:44:08;;;;;;;1.47;0.80;;;31.10;59.00;;;;;;4946560;28;21053;-77
2022/07/30 13:46:35;;;;;;;1.47;0.80;;;31.30;61.30;;;;;;4947318;28;20488;-78
2022/07/30 13:49:03;;;;;;;1.43;0.80;;;31.60;59.40;;;;;;4950956;28;20499;-76
2022/07/30 13:51:54;;;;;;;1.43;0.80;;;31.70;59.60;;;;;;4923954;29;20491;-75
2022/07/30 13:54:24;;;;;;;1.50;0.80;;;31.90;60.00;;;;;;4960646;28;20539;-77
2022/07/30 13:56:56;;;;;;;1.40;0.83;;;32.00;58.60;;;;;;4967254;28;20222;-76
2022/07/30 13:59:26;;;;;;;1.40;0.80;;;31.90;58.70;;;;;;4962848;28;20458;-76
2022/07/30 14:02:03;;;;;;;1.40;0.80;;;32.10;58.30;;;;;;4961286;28;21434;-77
2022/07/30 14:04:30;;;;;;;1.40;0.80;;;32.10;58.10;;;;;;4957168;28;20246;-75
2022/07/30 14:06:58;;;;;;;1.40;0.80;;;32.20;58.40;;;;;;4951367;28;20571;-75
2022/07/30 14:09:46;;;;;;;1.40;0.80;;;32.30;58.40;;;;;;4953851;28;20473;-76
2022/07/30 14:12:14;;;;;;;1.40;0.80;;;32.20;57.80;;;;;;4932173;28;20487;-76
2022/07/30 14:14:41;;;;;;;1.40;0.80;;;32.30;57.90;;;;;;4942371;28;20226;-77
2022/07/30 14:17:08;;;;;;;1.40;0.80;;;32.30;57.40;;;;;;4934046;28;20257;-75
2022/07/30 14:19:36;;;;;;;1.40;0.80;;;32.50;58.00;;;;;;4944825;28;21590;-77
2022/07/30 14:22:03;;;;;;;1.40;0.80;;;32.60;57.70;;;;;;4939156;28;20305;-76
2022/07/30 14:24:31;;;;;;;1.40;0.80;;;32.80;56.90;;;;;;4945425;28;20246;-76
2022/07/30 14:26:58;;;;;;;1.40;0.80;;;33.00;57.30;;;;;;4934268;28;20478;-76
2022/07/30 14:29:28;;;;;;;1.40;0.80;;;33.00;57.10;;;;;;4942752;28;20236;-75
2022/07/30 14:31:55;;;;;;;1.40;0.80;;;32.90;56.00;;;;;;4923623;28;20250;-75
2022/07/30 14:34:24;;;;;;;1.40;0.80;;;32.70;56.70;;;;;;4946180;28;20320;-77
2022/07/30 14:36:52;;;;;;;1.40;0.80;;;32.50;57.30;;;;;;4948927;28;20359;-77
2022/07/30 14:39:25;;;;;;;1.40;0.80;;;32.50;56.80;;;;;;4941511;28;20235;-76
2022/07/30 14:41:53;;;;;;;1.40;0.80;;;32.50;56.90;;;;;;4942608;28;20290;-77